Huvudsida
METAR-TAF:

METAR-TAF

Flygplatser :

El Salvador, El Salvador

latitud: 13-26N, longitud: 089-03W, höjd: 25 m

Aktuellt väderrapport

Denna rapport gjordes för 39 minuter sedan, klockan 09:50 UTC
Vind 9 kt från nord/nordost, varierande mellan nord och ost/nordost
Temperatur 23°C
Fuktighet 53%
Tryck 1014 hPa
Sikt 10 km eller mer
Inga moln under 1 500 m eller inga cumulonimbus

METAR: MSLP 170950Z 03009KT 350V060 CAVOK 23/13 Q1013 A2993 NOSIG

Tid: 04:29 (10:29 UTC)

Väderprognos

Denna rapport gjordes för 7 timmar och 4 minuter sedan, klockan 03:25 UTC
Prognos gäller från 17 kl. 06 UTC till 18 kl. 06 UTC
Sikt 10 km eller mer
Inga moln under 1 500 m eller inga cumulonimbus

TAF: MSLP 170325Z 1706/1806 0210G20KT CAVOK TX33/1718Z TN22/1711Z

Aktuella väderrapporter och prognoser från 4000 flygplatser (METAR- och TAF-rapporter).

De tillgängliga stationerna syns som gula och röda prickar på kartan.

För musen över prickarna för att se namnen på stationerna.

Klicka sedan för att få väderrapporter och prognoser.

För att ändra kartan: Klicka på de gröna knapparna med ett svart kors på för att zooma in; den gröna knappen med ett streck på för att zooma ut; eller på de gröna pilarna för angränsande kartor.


METAR-TAF: